sensor_id;sensor_type;location;lat;lon;timestamp;P1;durP1;ratioP1;P2;durP2;ratioP2
21432;SDS011;18592;49.708;10.900;2023-12-07T00:00:05;11.43;;;8.15;;
21432;SDS011;18592;49.708;10.900;2023-12-07T00:02:12;9.83;;;8.07;;
21432;SDS011;18592;49.708;10.900;2023-12-07T00:04:18;9.95;;;8.02;;
21432;SDS011;18592;49.708;10.900;2023-12-07T00:06:21;11.98;;;8.68;;
21432;SDS011;18592;49.708;10.900;2023-12-07T00:08:37;11.05;;;8.60;;
21432;SDS011;18592;49.708;10.900;2023-12-07T00:10:41;10.73;;;7.97;;
21432;SDS011;18592;49.708;10.900;2023-12-07T00:12:43;10.48;;;8.20;;
21432;SDS011;18592;49.708;10.900;2023-12-07T00:14:44;9.93;;;7.70;;
21432;SDS011;18592;49.708;10.900;2023-12-07T00:16:53;10.53;;;8.13;;
21432;SDS011;18592;49.708;10.900;2023-12-07T00:18:58;9.23;;;7.53;;
21432;SDS011;18592;49.708;10.900;2023-12-07T00:21:04;9.77;;;7.70;;
21432;SDS011;18592;49.708;10.900;2023-12-07T00:23:06;10.00;;;7.47;;
21432;SDS011;18592;49.708;10.900;2023-12-07T00:25:13;10.45;;;8.02;;
21432;SDS011;18592;49.708;10.900;2023-12-07T00:27:14;9.20;;;7.22;;
21432;SDS011;18592;49.708;10.900;2023-12-07T00:29:17;10.45;;;7.93;;
21432;SDS011;18592;49.708;10.900;2023-12-07T00:31:21;10.65;;;7.32;;
21432;SDS011;18592;49.708;10.900;2023-12-07T00:33:22;10.10;;;8.05;;
21432;SDS011;18592;49.708;10.900;2023-12-07T00:35:34;9.77;;;8.00;;
21432;SDS011;18592;49.708;10.900;2023-12-07T00:37:37;10.07;;;7.73;;
21432;SDS011;18592;49.708;10.900;2023-12-07T00:39:43;9.33;;;7.50;;
21432;SDS011;18592;49.708;10.900;2023-12-07T00:41:45;11.27;;;8.30;;
21432;SDS011;18592;49.708;10.900;2023-12-07T00:43:54;9.27;;;7.27;;
21432;SDS011;18592;49.708;10.900;2023-12-07T00:46:21;10.63;;;7.83;;
21432;SDS011;18592;49.708;10.900;2023-12-07T00:48:25;9.27;;;7.23;;
21432;SDS011;18592;49.708;10.900;2023-12-07T00:50:31;10.13;;;8.07;;
21432;SDS011;18592;49.708;10.900;2023-12-07T00:52:35;9.75;;;7.63;;
21432;SDS011;18592;49.708;10.900;2023-12-07T00:54:41;11.05;;;7.80;;
21432;SDS011;18592;49.708;10.900;2023-12-07T00:56:43;10.73;;;8.07;;
21432;SDS011;18592;49.708;10.900;2023-12-07T00:58:45;10.40;;;7.45;;
21432;SDS011;18592;49.708;10.900;2023-12-07T01:00:47;8.38;;;6.70;;
21432;SDS011;18592;49.708;10.900;2023-12-07T01:02:53;9.80;;;7.63;;
21432;SDS011;18592;49.708;10.900;2023-12-07T01:04:58;9.45;;;7.38;;
21432;SDS011;18592;49.708;10.900;2023-12-07T01:07:02;10.77;;;7.88;;
21432;SDS011;18592;49.708;10.900;2023-12-07T01:09:05;9.15;;;7.50;;
21432;SDS011;18592;49.708;10.900;2023-12-07T01:11:08;9.00;;;7.30;;
21432;SDS011;18592;49.708;10.900;2023-12-07T01:13:10;10.25;;;7.10;;
21432;SDS011;18592;49.708;10.900;2023-12-07T01:15:12;10.15;;;7.63;;
21432;SDS011;18592;49.708;10.900;2023-12-07T01:17:18;8.77;;;6.53;;
21432;SDS011;18592;49.708;10.900;2023-12-07T01:19:24;8.90;;;7.40;;
21432;SDS011;18592;49.708;10.900;2023-12-07T01:21:26;9.17;;;7.43;;
21432;SDS011;18592;49.708;10.900;2023-12-07T01:23:27;9.40;;;7.07;;
21432;SDS011;18592;49.708;10.900;2023-12-07T01:25:42;10.02;;;7.10;;
21432;SDS011;18592;49.708;10.900;2023-12-07T01:27:44;10.13;;;7.18;;
21432;SDS011;18592;49.708;10.900;2023-12-07T01:29:50;9.65;;;7.03;;
21432;SDS011;18592;49.708;10.900;2023-12-07T01:31:55;10.80;;;8.15;;
21432;SDS011;18592;49.708;10.900;2023-12-07T01:33:57;8.68;;;7.45;;
21432;SDS011;18592;49.708;10.900;2023-12-07T01:36:06;9.73;;;7.47;;
21432;SDS011;18592;49.708;10.900;2023-12-07T01:38:09;9.47;;;7.77;;
21432;SDS011;18592;49.708;10.900;2023-12-07T01:40:15;10.05;;;7.63;;
21432;SDS011;18592;49.708;10.900;2023-12-07T01:42:17;9.35;;;7.30;;
21432;SDS011;18592;49.708;10.900;2023-12-07T01:44:21;10.02;;;6.93;;
21432;SDS011;18592;49.708;10.900;2023-12-07T01:46:22;11.10;;;7.67;;
21432;SDS011;18592;49.708;10.900;2023-12-07T01:48:25;8.80;;;7.60;;
21432;SDS011;18592;49.708;10.900;2023-12-07T01:50:32;10.67;;;8.00;;
21432;SDS011;18592;49.708;10.900;2023-12-07T01:52:38;9.35;;;7.45;;
21432;SDS011;18592;49.708;10.900;2023-12-07T01:54:51;10.45;;;7.75;;
21432;SDS011;18592;49.708;10.900;2023-12-07T01:57:02;8.65;;;6.97;;
21432;SDS011;18592;49.708;10.900;2023-12-07T01:59:05;10.93;;;7.63;;
21432;SDS011;18592;49.708;10.900;2023-12-07T02:01:13;9.80;;;7.47;;
21432;SDS011;18592;49.708;10.900;2023-12-07T02:03:17;11.13;;;8.10;;
21432;SDS011;18592;49.708;10.900;2023-12-07T02:05:23;10.93;;;7.57;;
21432;SDS011;18592;49.708;10.900;2023-12-07T02:07:33;11.32;;;8.20;;
21432;SDS011;18592;49.708;10.900;2023-12-07T02:09:35;10.47;;;8.37;;
21432;SDS011;18592;49.708;10.900;2023-12-07T02:11:38;10.17;;;7.70;;
21432;SDS011;18592;49.708;10.900;2023-12-07T02:13:40;8.97;;;7.40;;
21432;SDS011;18592;49.708;10.900;2023-12-07T02:15:44;9.23;;;7.80;;
21432;SDS011;18592;49.708;10.900;2023-12-07T02:17:57;10.05;;;7.45;;
21432;SDS011;18592;49.708;10.900;2023-12-07T02:20:10;10.82;;;8.18;;
21432;SDS011;18592;49.708;10.900;2023-12-07T02:22:21;10.07;;;7.93;;
21432;SDS011;18592;49.708;10.900;2023-12-07T02:24:47;9.93;;;7.67;;
21432;SDS011;18592;49.708;10.900;2023-12-07T02:27:00;10.13;;;7.73;;
21432;SDS011;18592;49.708;10.900;2023-12-07T02:29:10;9.27;;;7.50;;
21432;SDS011;18592;49.708;10.900;2023-12-07T02:31:11;10.87;;;7.90;;
21432;SDS011;18592;49.708;10.900;2023-12-07T02:33:26;10.73;;;7.80;;
21432;SDS011;18592;49.708;10.900;2023-12-07T02:35:30;8.67;;;7.40;;
21432;SDS011;18592;49.708;10.900;2023-12-07T02:37:37;9.37;;;7.40;;
21432;SDS011;18592;49.708;10.900;2023-12-07T02:39:49;9.27;;;7.17;;
21432;SDS011;18592;49.708;10.900;2023-12-07T02:41:57;10.43;;;7.60;;
21432;SDS011;18592;49.708;10.900;2023-12-07T02:44:04;9.67;;;7.03;;
21432;SDS011;18592;49.708;10.900;2023-12-07T02:46:06;9.20;;;7.43;;
21432;SDS011;18592;49.708;10.900;2023-12-07T02:48:13;10.47;;;7.90;;
21432;SDS011;18592;49.708;10.900;2023-12-07T02:50:15;11.53;;;7.90;;
21432;SDS011;18592;49.708;10.900;2023-12-07T02:52:17;11.53;;;8.33;;
21432;SDS011;18592;49.708;10.900;2023-12-07T02:54:21;8.47;;;7.00;;
21432;SDS011;18592;49.708;10.900;2023-12-07T02:56:33;9.20;;;7.33;;
21432;SDS011;18592;49.708;10.900;2023-12-07T02:58:40;12.73;;;8.60;;
21432;SDS011;18592;49.708;10.900;2023-12-07T03:00:42;9.47;;;7.70;;
21432;SDS011;18592;49.708;10.900;2023-12-07T03:02:47;10.73;;;7.70;;
21432;SDS011;18592;49.708;10.900;2023-12-07T03:04:49;9.13;;;7.00;;
21432;SDS011;18592;49.708;10.900;2023-12-07T03:07:02;10.80;;;7.57;;
21432;SDS011;18592;49.708;10.900;2023-12-07T03:09:05;9.47;;;7.30;;
21432;SDS011;18592;49.708;10.900;2023-12-07T03:11:07;8.97;;;7.13;;
21432;SDS011;18592;49.708;10.900;2023-12-07T03:13:13;11.07;;;7.43;;
21432;SDS011;18592;49.708;10.900;2023-12-07T03:15:18;9.70;;;7.20;;
21432;SDS011;18592;49.708;10.900;2023-12-07T03:18:02;10.07;;;7.53;;
21432;SDS011;18592;49.708;10.900;2023-12-07T03:20:06;9.00;;;7.00;;
21432;SDS011;18592;49.708;10.900;2023-12-07T03:22:12;9.37;;;7.30;;
21432;SDS011;18592;49.708;10.900;2023-12-07T03:24:14;10.43;;;7.53;;
21432;SDS011;18592;49.708;10.900;2023-12-07T03:26:16;10.32;;;7.25;;
21432;SDS011;18592;49.708;10.900;2023-12-07T03:28:23;9.73;;;7.70;;
21432;SDS011;18592;49.708;10.900;2023-12-07T03:30:26;9.60;;;7.20;;
21432;SDS011;18592;49.708;10.900;2023-12-07T03:32:27;10.93;;;7.33;;
21432;SDS011;18592;49.708;10.900;2023-12-07T03:34:29;10.33;;;7.50;;
21432;SDS011;18592;49.708;10.900;2023-12-07T03:36:39;10.00;;;7.40;;
21432;SDS011;18592;49.708;10.900;2023-12-07T03:38:42;9.23;;;7.20;;
21432;SDS011;18592;49.708;10.900;2023-12-07T03:40:46;9.67;;;7.27;;
21432;SDS011;18592;49.708;10.900;2023-12-07T03:42:54;10.20;;;7.73;;
21432;SDS011;18592;49.708;10.900;2023-12-07T03:44:57;9.40;;;7.10;;
21432;SDS011;18592;49.708;10.900;2023-12-07T03:46:59;10.40;;;7.37;;
21432;SDS011;18592;49.708;10.900;2023-12-07T03:49:03;10.03;;;7.07;;
21432;SDS011;18592;49.708;10.900;2023-12-07T03:51:12;9.50;;;7.37;;
21432;SDS011;18592;49.708;10.900;2023-12-07T03:53:17;9.57;;;7.47;;
21432;SDS011;18592;49.708;10.900;2023-12-07T03:55:19;8.37;;;6.80;;
21432;SDS011;18592;49.708;10.900;2023-12-07T03:57:22;10.27;;;7.60;;
21432;SDS011;18592;49.708;10.900;2023-12-07T03:59:23;10.03;;;7.53;;
21432;SDS011;18592;49.708;10.900;2023-12-07T04:01:25;9.13;;;7.07;;
21432;SDS011;18592;49.708;10.900;2023-12-07T04:03:43;9.47;;;6.80;;
21432;SDS011;18592;49.708;10.900;2023-12-07T04:05:49;10.83;;;7.57;;
21432;SDS011;18592;49.708;10.900;2023-12-07T04:07:51;9.03;;;7.00;;
21432;SDS011;18592;49.708;10.900;2023-12-07T04:09:53;8.60;;;6.50;;
21432;SDS011;18592;49.708;10.900;2023-12-07T04:11:55;10.03;;;7.77;;
21432;SDS011;18592;49.708;10.900;2023-12-07T04:13:57;10.93;;;7.43;;
21432;SDS011;18592;49.708;10.900;2023-12-07T04:16:09;10.40;;;7.37;;
21432;SDS011;18592;49.708;10.900;2023-12-07T04:18:15;9.93;;;6.93;;
21432;SDS011;18592;49.708;10.900;2023-12-07T04:20:17;11.03;;;7.13;;
21432;SDS011;18592;49.708;10.900;2023-12-07T04:22:23;8.97;;;7.07;;
21432;SDS011;18592;49.708;10.900;2023-12-07T04:24:25;10.10;;;7.13;;
21432;SDS011;18592;49.708;10.900;2023-12-07T04:26:27;11.47;;;7.40;;
21432;SDS011;18592;49.708;10.900;2023-12-07T04:28:33;9.40;;;7.37;;
21432;SDS011;18592;49.708;10.900;2023-12-07T04:30:36;11.23;;;7.70;;
21432;SDS011;18592;49.708;10.900;2023-12-07T04:32:40;10.00;;;7.30;;
21432;SDS011;18592;49.708;10.900;2023-12-07T04:34:45;12.13;;;7.57;;
21432;SDS011;18592;49.708;10.900;2023-12-07T04:36:52;9.93;;;7.77;;
21432;SDS011;18592;49.708;10.900;2023-12-07T04:38:53;11.30;;;7.73;;
21432;SDS011;18592;49.708;10.900;2023-12-07T04:40:55;11.53;;;8.10;;
21432;SDS011;18592;49.708;10.900;2023-12-07T04:42:56;10.23;;;7.73;;
21432;SDS011;18592;49.708;10.900;2023-12-07T04:44:59;9.40;;;7.40;;
21432;SDS011;18592;49.708;10.900;2023-12-07T04:47:02;10.33;;;7.37;;
21432;SDS011;18592;49.708;10.900;2023-12-07T04:49:03;10.60;;;7.60;;
21432;SDS011;18592;49.708;10.900;2023-12-07T04:51:07;9.03;;;7.10;;
21432;SDS011;18592;49.708;10.900;2023-12-07T04:53:16;10.90;;;7.47;;
21432;SDS011;18592;49.708;10.900;2023-12-07T04:55:23;9.85;;;7.90;;
21432;SDS011;18592;49.708;10.900;2023-12-07T04:57:28;10.10;;;7.70;;
21432;SDS011;18592;49.708;10.900;2023-12-07T04:59:32;9.60;;;6.90;;
21432;SDS011;18592;49.708;10.900;2023-12-07T05:01:34;8.87;;;6.80;;
21432;SDS011;18592;49.708;10.900;2023-12-07T05:03:37;9.00;;;6.87;;
21432;SDS011;18592;49.708;10.900;2023-12-07T05:05:38;9.97;;;7.80;;
21432;SDS011;18592;49.708;10.900;2023-12-07T05:07:40;9.23;;;7.43;;
21432;SDS011;18592;49.708;10.900;2023-12-07T05:09:46;9.35;;;7.60;;
21432;SDS011;18592;49.708;10.900;2023-12-07T05:11:51;9.87;;;7.80;;
21432;SDS011;18592;49.708;10.900;2023-12-07T05:13:56;9.40;;;7.80;;
21432;SDS011;18592;49.708;10.900;2023-12-07T05:15:59;9.73;;;7.23;;
21432;SDS011;18592;49.708;10.900;2023-12-07T05:18:01;11.30;;;7.43;;
21432;SDS011;18592;49.708;10.900;2023-12-07T05:20:10;10.33;;;8.23;;
21432;SDS011;18592;49.708;10.900;2023-12-07T05:22:27;11.83;;;8.13;;
21432;SDS011;18592;49.708;10.900;2023-12-07T05:24:30;9.90;;;7.80;;
21432;SDS011;18592;49.708;10.900;2023-12-07T05:26:45;12.63;;;8.13;;
21432;SDS011;18592;49.708;10.900;2023-12-07T05:28:53;9.20;;;7.13;;
21432;SDS011;18592;49.708;10.900;2023-12-07T05:30:54;9.90;;;7.70;;
21432;SDS011;18592;49.708;10.900;2023-12-07T05:33:00;10.47;;;7.80;;
21432;SDS011;18592;49.708;10.900;2023-12-07T05:35:02;10.33;;;7.53;;
21432;SDS011;18592;49.708;10.900;2023-12-07T05:37:09;10.37;;;7.77;;
21432;SDS011;18592;49.708;10.900;2023-12-07T05:39:11;9.27;;;7.50;;
21432;SDS011;18592;49.708;10.900;2023-12-07T05:41:13;12.20;;;8.13;;
21432;SDS011;18592;49.708;10.900;2023-12-07T05:43:15;10.07;;;7.80;;
21432;SDS011;18592;49.708;10.900;2023-12-07T05:45:22;11.33;;;8.50;;
21432;SDS011;18592;49.708;10.900;2023-12-07T05:47:24;9.13;;;7.63;;
21432;SDS011;18592;49.708;10.900;2023-12-07T05:49:25;12.67;;;8.47;;
21432;SDS011;18592;49.708;10.900;2023-12-07T05:51:27;10.53;;;8.10;;
21432;SDS011;18592;49.708;10.900;2023-12-07T05:53:28;10.90;;;8.27;;
21432;SDS011;18592;49.708;10.900;2023-12-07T05:55:30;13.77;;;8.67;;
21432;SDS011;18592;49.708;10.900;2023-12-07T05:57:31;10.83;;;8.90;;
21432;SDS011;18592;49.708;10.900;2023-12-07T05:59:36;11.40;;;8.50;;
21432;SDS011;18592;49.708;10.900;2023-12-07T06:01:39;11.87;;;8.43;;
21432;SDS011;18592;49.708;10.900;2023-12-07T06:03:40;10.83;;;8.13;;
21432;SDS011;18592;49.708;10.900;2023-12-07T06:05:42;11.90;;;8.20;;
21432;SDS011;18592;49.708;10.900;2023-12-07T06:07:47;11.23;;;8.20;;
21432;SDS011;18592;49.708;10.900;2023-12-07T06:09:48;11.60;;;8.63;;
21432;SDS011;18592;49.708;10.900;2023-12-07T06:11:50;12.07;;;8.60;;
21432;SDS011;18592;49.708;10.900;2023-12-07T06:13:52;11.17;;;8.20;;
21432;SDS011;18592;49.708;10.900;2023-12-07T06:15:54;11.60;;;8.70;;
21432;SDS011;18592;49.708;10.900;2023-12-07T06:17:55;10.90;;;8.30;;
21432;SDS011;18592;49.708;10.900;2023-12-07T06:19:58;11.13;;;7.40;;
21432;SDS011;18592;49.708;10.900;2023-12-07T06:22:00;12.27;;;8.20;;
21432;SDS011;18592;49.708;10.900;2023-12-07T06:24:02;12.83;;;8.27;;
21432;SDS011;18592;49.708;10.900;2023-12-07T06:26:03;11.07;;;7.53;;
21432;SDS011;18592;49.708;10.900;2023-12-07T06:28:06;10.57;;;8.00;;
21432;SDS011;18592;49.708;10.900;2023-12-07T06:30:08;10.33;;;7.87;;
21432;SDS011;18592;49.708;10.900;2023-12-07T06:32:10;11.23;;;8.03;;
21432;SDS011;18592;49.708;10.900;2023-12-07T06:34:11;10.93;;;7.47;;
21432;SDS011;18592;49.708;10.900;2023-12-07T06:36:22;10.43;;;7.87;;
21432;SDS011;18592;49.708;10.900;2023-12-07T06:38:24;11.17;;;8.13;;
21432;SDS011;18592;49.708;10.900;2023-12-07T06:40:26;12.37;;;8.40;;
21432;SDS011;18592;49.708;10.900;2023-12-07T06:42:28;9.97;;;7.73;;
21432;SDS011;18592;49.708;10.900;2023-12-07T06:44:29;10.83;;;7.90;;
21432;SDS011;18592;49.708;10.900;2023-12-07T06:46:31;9.53;;;7.63;;
21432;SDS011;18592;49.708;10.900;2023-12-07T06:48:33;12.83;;;8.07;;
21432;SDS011;18592;49.708;10.900;2023-12-07T06:50:35;11.37;;;7.70;;
21432;SDS011;18592;49.708;10.900;2023-12-07T06:52:37;11.30;;;7.70;;
21432;SDS011;18592;49.708;10.900;2023-12-07T06:54:38;11.40;;;7.77;;
21432;SDS011;18592;49.708;10.900;2023-12-07T06:56:40;9.87;;;7.53;;
21432;SDS011;18592;49.708;10.900;2023-12-07T06:58:41;12.13;;;7.63;;
21432;SDS011;18592;49.708;10.900;2023-12-07T07:00:43;8.83;;;7.00;;
21432;SDS011;18592;49.708;10.900;2023-12-07T07:02:45;10.63;;;7.50;;
21432;SDS011;18592;49.708;10.900;2023-12-07T07:04:47;10.00;;;6.67;;
21432;SDS011;18592;49.708;10.900;2023-12-07T07:06:50;10.00;;;7.23;;
21432;SDS011;18592;49.708;10.900;2023-12-07T07:08:52;9.37;;;7.10;;
21432;SDS011;18592;49.708;10.900;2023-12-07T07:10:55;10.33;;;7.00;;
21432;SDS011;18592;49.708;10.900;2023-12-07T07:12:59;9.33;;;7.13;;
21432;SDS011;18592;49.708;10.900;2023-12-07T07:15:06;10.67;;;7.63;;
21432;SDS011;18592;49.708;10.900;2023-12-07T07:17:08;12.53;;;8.40;;
21432;SDS011;18592;49.708;10.900;2023-12-07T07:19:10;13.17;;;9.17;;
21432;SDS011;18592;49.708;10.900;2023-12-07T07:21:12;13.67;;;9.40;;
21432;SDS011;18592;49.708;10.900;2023-12-07T07:23:14;13.53;;;9.73;;
21432;SDS011;18592;49.708;10.900;2023-12-07T07:25:16;13.97;;;9.30;;
21432;SDS011;18592;49.708;10.900;2023-12-07T07:27:20;16.60;;;10.37;;
21432;SDS011;18592;49.708;10.900;2023-12-07T07:29:22;13.60;;;10.90;;
21432;SDS011;18592;49.708;10.900;2023-12-07T07:31:33;15.63;;;10.43;;
21432;SDS011;18592;49.708;10.900;2023-12-07T07:33:37;17.23;;;11.37;;
21432;SDS011;18592;49.708;10.900;2023-12-07T07:35:38;15.93;;;11.93;;
21432;SDS011;18592;49.708;10.900;2023-12-07T07:37:41;18.43;;;11.93;;
21432;SDS011;18592;49.708;10.900;2023-12-07T07:39:43;16.43;;;11.60;;
21432;SDS011;18592;49.708;10.900;2023-12-07T07:41:44;16.10;;;11.77;;
21432;SDS011;18592;49.708;10.900;2023-12-07T07:43:47;18.67;;;11.93;;
21432;SDS011;18592;49.708;10.900;2023-12-07T07:45:48;17.57;;;12.60;;
21432;SDS011;18592;49.708;10.900;2023-12-07T07:47:50;17.30;;;11.57;;
21432;SDS011;18592;49.708;10.900;2023-12-07T07:49:52;16.27;;;11.93;;
21432;SDS011;18592;49.708;10.900;2023-12-07T07:51:54;16.77;;;11.67;;
21432;SDS011;18592;49.708;10.900;2023-12-07T07:53:55;14.80;;;11.67;;
21432;SDS011;18592;49.708;10.900;2023-12-07T07:56:00;15.97;;;11.83;;
21432;SDS011;18592;49.708;10.900;2023-12-07T07:58:01;14.17;;;10.80;;
21432;SDS011;18592;49.708;10.900;2023-12-07T08:00:04;14.77;;;11.17;;
21432;SDS011;18592;49.708;10.900;2023-12-07T08:02:06;12.73;;;10.13;;
21432;SDS011;18592;49.708;10.900;2023-12-07T08:04:09;12.37;;;9.77;;
21432;SDS011;18592;49.708;10.900;2023-12-07T08:06:11;12.77;;;10.13;;
21432;SDS011;18592;49.708;10.900;2023-12-07T08:08:13;12.30;;;9.73;;
21432;SDS011;18592;49.708;10.900;2023-12-07T08:10:15;12.67;;;9.93;;
21432;SDS011;18592;49.708;10.900;2023-12-07T08:12:17;12.33;;;9.87;;
21432;SDS011;18592;49.708;10.900;2023-12-07T08:14:18;12.87;;;9.93;;
21432;SDS011;18592;49.708;10.900;2023-12-07T08:16:20;13.83;;;10.73;;
21432;SDS011;18592;49.708;10.900;2023-12-07T08:18:21;14.53;;;11.53;;
21432;SDS011;18592;49.708;10.900;2023-12-07T08:20:24;15.20;;;12.10;;
21432;SDS011;18592;49.708;10.900;2023-12-07T08:22:26;15.53;;;12.77;;
21432;SDS011;18592;49.708;10.900;2023-12-07T08:24:29;15.07;;;12.27;;
21432;SDS011;18592;49.708;10.900;2023-12-07T08:26:30;16.53;;;13.17;;
21432;SDS011;18592;49.708;10.900;2023-12-07T08:28:32;16.13;;;12.80;;
21432;SDS011;18592;49.708;10.900;2023-12-07T08:30:34;16.80;;;14.07;;
21432;SDS011;18592;49.708;10.900;2023-12-07T08:32:37;19.90;;;15.70;;
21432;SDS011;18592;49.708;10.900;2023-12-07T08:34:39;19.90;;;16.27;;
21432;SDS011;18592;49.708;10.900;2023-12-07T08:36:40;22.53;;;18.03;;
21432;SDS011;18592;49.708;10.900;2023-12-07T08:38:42;21.37;;;16.30;;
21432;SDS011;18592;49.708;10.900;2023-12-07T08:40:44;22.90;;;16.60;;
21432;SDS011;18592;49.708;10.900;2023-12-07T08:42:46;19.80;;;15.63;;
21432;SDS011;18592;49.708;10.900;2023-12-07T08:44:52;18.83;;;14.53;;
21432;SDS011;18592;49.708;10.900;2023-12-07T08:46:54;19.07;;;13.77;;
21432;SDS011;18592;49.708;10.900;2023-12-07T08:48:56;16.90;;;12.80;;
21432;SDS011;18592;49.708;10.900;2023-12-07T08:50:58;14.63;;;11.90;;
21432;SDS011;18592;49.708;10.900;2023-12-07T08:52:59;15.10;;;12.27;;
21432;SDS011;18592;49.708;10.900;2023-12-07T08:55:05;12.80;;;11.40;;
21432;SDS011;18592;49.708;10.900;2023-12-07T08:57:07;14.83;;;11.07;;
21432;SDS011;18592;49.708;10.900;2023-12-07T08:59:09;15.53;;;12.30;;
21432;SDS011;18592;49.708;10.900;2023-12-07T09:01:10;18.03;;;13.20;;
21432;SDS011;18592;49.708;10.900;2023-12-07T09:03:30;15.07;;;11.93;;
21432;SDS011;18592;49.708;10.900;2023-12-07T09:05:33;17.43;;;13.43;;
21432;SDS011;18592;49.708;10.900;2023-12-07T09:07:35;19.23;;;14.20;;
21432;SDS011;18592;49.708;10.900;2023-12-07T09:09:36;19.23;;;14.70;;
21432;SDS011;18592;49.708;10.900;2023-12-07T09:11:40;21.00;;;15.53;;
21432;SDS011;18592;49.708;10.900;2023-12-07T09:13:42;19.80;;;14.90;;
21432;SDS011;18592;49.708;10.900;2023-12-07T09:15:44;22.87;;;15.37;;
21432;SDS011;18592;49.708;10.900;2023-12-07T09:17:45;21.37;;;15.33;;
21432;SDS011;18592;49.708;10.900;2023-12-07T09:19:47;21.60;;;15.47;;
21432;SDS011;18592;49.708;10.900;2023-12-07T09:21:48;21.83;;;16.40;;
21432;SDS011;18592;49.708;10.900;2023-12-07T09:23:50;22.40;;;15.97;;
21432;SDS011;18592;49.708;10.900;2023-12-07T09:25:52;25.70;;;16.70;;
21432;SDS011;18592;49.708;10.900;2023-12-07T09:27:53;24.13;;;16.73;;
21432;SDS011;18592;49.708;10.900;2023-12-07T09:29:55;25.80;;;16.83;;
21432;SDS011;18592;49.708;10.900;2023-12-07T09:31:57;25.57;;;17.70;;
21432;SDS011;18592;49.708;10.900;2023-12-07T09:33:58;25.13;;;18.13;;
21432;SDS011;18592;49.708;10.900;2023-12-07T09:36:16;25.37;;;17.00;;
21432;SDS011;18592;49.708;10.900;2023-12-07T09:38:20;26.23;;;17.07;;
21432;SDS011;18592;49.708;10.900;2023-12-07T09:40:22;24.83;;;16.53;;
21432;SDS011;18592;49.708;10.900;2023-12-07T09:42:24;22.80;;;16.47;;
21432;SDS011;18592;49.708;10.900;2023-12-07T09:44:38;22.67;;;16.00;;
21432;SDS011;18592;49.708;10.900;2023-12-07T09:46:40;23.17;;;14.97;;
21432;SDS011;18592;49.708;10.900;2023-12-07T09:48:42;18.37;;;13.97;;
21432;SDS011;18592;49.708;10.900;2023-12-07T09:50:46;20.40;;;14.33;;
21432;SDS011;18592;49.708;10.900;2023-12-07T09:52:49;18.97;;;13.60;;
21432;SDS011;18592;49.708;10.900;2023-12-07T09:55:20;18.30;;;13.02;;
21432;SDS011;18592;49.708;10.900;2023-12-07T09:57:23;18.30;;;13.40;;
21432;SDS011;18592;49.708;10.900;2023-12-07T09:59:29;19.65;;;14.00;;
21432;SDS011;18592;49.708;10.900;2023-12-07T10:01:30;18.20;;;14.15;;
21432;SDS011;18592;49.708;10.900;2023-12-07T10:03:32;17.67;;;13.27;;
21432;SDS011;18592;49.708;10.900;2023-12-07T10:05:34;17.50;;;13.47;;
21432;SDS011;18592;49.708;10.900;2023-12-07T10:07:54;17.10;;;13.43;;
21432;SDS011;18592;49.708;10.900;2023-12-07T10:09:56;15.43;;;12.43;;
21432;SDS011;18592;49.708;10.900;2023-12-07T10:12:02;18.97;;;13.80;;
21432;SDS011;18592;49.708;10.900;2023-12-07T10:14:08;20.07;;;14.13;;
21432;SDS011;18592;49.708;10.900;2023-12-07T10:16:14;18.57;;;13.00;;
21432;SDS011;18592;49.708;10.900;2023-12-07T10:18:22;20.00;;;13.20;;
21432;SDS011;18592;49.708;10.900;2023-12-07T10:20:25;17.92;;;11.98;;
21432;SDS011;18592;49.708;10.900;2023-12-07T10:22:28;19.77;;;12.98;;
21432;SDS011;18592;49.708;10.900;2023-12-07T10:24:29;18.45;;;12.98;;
21432;SDS011;18592;49.708;10.900;2023-12-07T10:26:32;15.23;;;12.37;;
21432;SDS011;18592;49.708;10.900;2023-12-07T10:28:35;18.37;;;13.27;;
21432;SDS011;18592;49.708;10.900;2023-12-07T10:30:41;19.10;;;12.97;;
21432;SDS011;18592;49.708;10.900;2023-12-07T10:32:44;18.80;;;12.98;;
21432;SDS011;18592;49.708;10.900;2023-12-07T10:34:46;18.77;;;12.77;;
21432;SDS011;18592;49.708;10.900;2023-12-07T10:36:47;18.42;;;13.27;;
21432;SDS011;18592;49.708;10.900;2023-12-07T10:38:50;17.47;;;13.20;;
21432;SDS011;18592;49.708;10.900;2023-12-07T10:41:04;16.00;;;12.73;;
21432;SDS011;18592;49.708;10.900;2023-12-07T10:43:08;19.10;;;13.52;;
21432;SDS011;18592;49.708;10.900;2023-12-07T10:45:10;17.30;;;13.88;;
21432;SDS011;18592;49.708;10.900;2023-12-07T10:47:16;17.77;;;13.93;;
21432;SDS011;18592;49.708;10.900;2023-12-07T10:49:21;18.27;;;13.50;;
21432;SDS011;18592;49.708;10.900;2023-12-07T10:51:41;19.23;;;14.35;;
21432;SDS011;18592;49.708;10.900;2023-12-07T10:53:48;20.50;;;14.98;;
21432;SDS011;18592;49.708;10.900;2023-12-07T10:55:53;18.58;;;14.07;;
21432;SDS011;18592;49.708;10.900;2023-12-07T10:57:58;21.67;;;15.00;;
21432;SDS011;18592;49.708;10.900;2023-12-07T11:00:02;18.85;;;13.93;;
21432;SDS011;18592;49.708;10.900;2023-12-07T11:02:04;20.10;;;15.00;;
21432;SDS011;18592;49.708;10.900;2023-12-07T11:04:12;18.95;;;14.23;;
21432;SDS011;18592;49.708;10.900;2023-12-07T11:06:23;19.67;;;15.07;;
21432;SDS011;18592;49.708;10.900;2023-12-07T11:08:42;25.92;;;15.27;;
21432;SDS011;18592;49.708;10.900;2023-12-07T11:10:53;20.27;;;14.70;;
21432;SDS011;18592;49.708;10.900;2023-12-07T11:13:00;19.33;;;14.75;;
21432;SDS011;18592;49.708;10.900;2023-12-07T11:15:13;22.40;;;15.40;;
21432;SDS011;18592;49.708;10.900;2023-12-07T11:17:15;19.25;;;14.13;;
21432;SDS011;18592;49.708;10.900;2023-12-07T11:21:35;21.88;;;15.52;;
21432;SDS011;18592;49.708;10.900;2023-12-07T11:23:37;21.00;;;15.15;;
21432;SDS011;18592;49.708;10.900;2023-12-07T11:25:38;18.67;;;14.68;;
21432;SDS011;18592;49.708;10.900;2023-12-07T11:27:43;20.90;;;15.23;;
21432;SDS011;18592;49.708;10.900;2023-12-07T11:29:48;19.92;;;15.18;;
21432;SDS011;18592;49.708;10.900;2023-12-07T11:31:50;20.83;;;15.68;;
21432;SDS011;18592;49.708;10.900;2023-12-07T11:33:52;21.10;;;15.52;;
21432;SDS011;18592;49.708;10.900;2023-12-07T11:36:04;21.20;;;15.07;;
21432;SDS011;18592;49.708;10.900;2023-12-07T11:38:08;23.25;;;16.02;;
21432;SDS011;18592;49.708;10.900;2023-12-07T11:40:13;22.02;;;15.23;;
21432;SDS011;18592;49.708;10.900;2023-12-07T11:42:18;21.83;;;15.15;;
21432;SDS011;18592;49.708;10.900;2023-12-07T11:44:24;21.60;;;16.17;;
21432;SDS011;18592;49.708;10.900;2023-12-07T11:46:34;20.63;;;15.40;;
21432;SDS011;18592;49.708;10.900;2023-12-07T11:48:38;21.10;;;15.73;;
21432;SDS011;18592;49.708;10.900;2023-12-07T11:53:05;24.15;;;16.90;;
21432;SDS011;18592;49.708;10.900;2023-12-07T11:55:08;20.42;;;16.33;;
21432;SDS011;18592;49.708;10.900;2023-12-07T11:57:09;21.58;;;16.35;;
21432;SDS011;18592;49.708;10.900;2023-12-07T11:59:11;22.80;;;16.42;;
21432;SDS011;18592;49.708;10.900;2023-12-07T12:01:18;21.02;;;15.85;;
21432;SDS011;18592;49.708;10.900;2023-12-07T12:03:20;21.50;;;16.02;;
21432;SDS011;18592;49.708;10.900;2023-12-07T12:05:22;21.30;;;16.30;;
21432;SDS011;18592;49.708;10.900;2023-12-07T12:07:24;21.88;;;16.63;;
21432;SDS011;18592;49.708;10.900;2023-12-07T12:09:27;22.08;;;16.88;;
21432;SDS011;18592;49.708;10.900;2023-12-07T12:11:33;23.27;;;17.17;;